createdAt,value
2018-12-10T00:01:40.026Z,74.3
2018-12-10T00:11:55.410Z,75.1
2018-12-10T00:22:10.006Z,78.8
2018-12-10T00:32:24.206Z,80.8
2018-12-10T00:42:38.830Z,80.1
2018-12-10T00:52:53.757Z,80.8
2018-12-10T01:03:09.333Z,81.3
2018-12-10T01:13:23.853Z,79.4
2018-12-10T01:23:38.449Z,83.1
2018-12-10T01:33:53.688Z,80.9
2018-12-10T01:44:09.290Z,79.1
2018-12-10T01:54:23.705Z,80.2
2018-12-10T02:04:37.708Z,77.9
2018-12-10T02:14:52.163Z,69.3
2018-12-10T02:25:06.601Z,71.9
2018-12-10T02:35:21.417Z,71.8
2018-12-10T02:45:35.337Z,70
2018-12-10T02:55:49.391Z,70.3
2018-12-10T03:06:03.366Z,72.3
2018-12-10T03:16:17.945Z,75.2
2018-12-10T03:26:32.497Z,69.6
2018-12-10T03:36:47.218Z,67.6
2018-12-10T03:47:01.749Z,66.5
2018-12-10T03:57:17.021Z,71.5
2018-12-10T04:07:31.199Z,73.7
2018-12-10T04:17:45.275Z,76.4
2018-12-10T04:28:00.357Z,74.3
2018-12-10T04:38:15.135Z,74.7
2018-12-10T04:48:30.422Z,75.3
2018-12-10T04:58:44.590Z,75.5
2018-12-10T05:08:58.299Z,73.1
2018-12-10T05:19:12.288Z,75.2
2018-12-10T05:29:25.989Z,69.9
2018-12-10T05:39:40.996Z,80.5
2018-12-10T05:49:55.737Z,80.7
2018-12-10T06:00:10.382Z,81
2018-12-10T06:10:24.264Z,74.3
2018-12-10T06:20:39.096Z,73.3
2018-12-10T06:30:52.962Z,71.8
2018-12-10T06:41:06.956Z,75.5
2018-12-10T06:51:21.167Z,73.9
2018-12-10T07:01:34.929Z,72.7
2018-12-10T07:11:48.635Z,70.2
2018-12-10T07:22:02.831Z,69.1
2018-12-10T07:32:17.646Z,73.2
2018-12-10T07:42:31.872Z,73.9
2018-12-10T07:52:47.308Z,70.4
2018-12-10T08:03:02.748Z,69.3
2018-12-10T08:13:17.624Z,74.9
2018-12-10T08:23:31.312Z,71.9
2018-12-10T08:33:45.229Z,67.5
2018-12-10T08:43:58.905Z,70.8
2018-12-10T08:54:12.942Z,77
2018-12-10T09:04:28.438Z,69
2018-12-10T09:14:42.285Z,56.4
2018-12-10T09:24:56.578Z,59.6
2018-12-10T09:35:11.337Z,65.9
2018-12-10T09:45:26.164Z,72.2
2018-12-10T09:55:41.714Z,83.7
2018-12-10T10:05:55.358Z,90.8
2018-12-10T10:16:10.344Z,92.7
2018-12-10T10:26:24.313Z,86.3
2018-12-10T10:36:39.332Z,84.2
2018-12-10T10:46:54.574Z,84.4
2018-12-10T10:57:09.986Z,84
2018-12-10T11:07:25.009Z,81.6
2018-12-10T11:17:40.749Z,82.7
2018-12-10T11:27:54.524Z,85.3
2018-12-10T11:38:09.829Z,84.3
2018-12-10T11:48:23.570Z,83
2018-12-10T11:58:37.288Z,75.3
2018-12-10T12:08:51.249Z,85.7
2018-12-10T12:19:05.301Z,94.1
2018-12-10T12:29:20.498Z,96.1
2018-12-10T12:39:35.328Z,95.7
2018-12-10T12:49:50.742Z,95.4
2018-12-10T13:00:05.698Z,100
2018-12-10T13:10:19.932Z,100
2018-12-10T13:20:33.622Z,100
2018-12-10T13:30:48.394Z,100
2018-12-10T13:41:03.933Z,100
2018-12-10T13:51:17.980Z,100
2018-12-10T14:01:33.798Z,99.6
2018-12-10T14:11:48.152Z,72.1
2018-12-10T14:22:02.342Z,58.7
2018-12-10T14:32:16.071Z,49.7
2018-12-10T14:42:31.567Z,45
2018-12-10T14:52:45.418Z,57.7
2018-12-10T15:03:00.944Z,76.8
2018-12-10T15:13:16.513Z,72.4
2018-12-10T15:23:31.480Z,73.7
2018-12-10T15:33:46.293Z,80.5
2018-12-10T15:44:00.466Z,81.1
2018-12-10T15:54:14.885Z,77.6
2018-12-10T16:04:29.637Z,72.1
2018-12-10T16:14:45.277Z,80.5
2018-12-10T16:24:59.942Z,86.3
2018-12-10T16:35:13.940Z,83.3
2018-12-10T16:45:27.703Z,81.7
2018-12-10T16:55:41.754Z,84.4
2018-12-10T17:05:55.836Z,86.4
2018-12-10T17:16:10.459Z,85.8
2018-12-10T17:26:24.358Z,83
2018-12-10T17:36:39.104Z,83
2018-12-10T17:46:53.291Z,85.7
2018-12-10T17:57:07.678Z,82.3
2018-12-10T18:07:21.949Z,77.1
2018-12-10T18:17:35.724Z,74.7
2018-12-10T18:27:51.102Z,73
2018-12-10T18:38:06.385Z,70.3
2018-12-10T18:48:20.696Z,72.2
2018-12-10T18:58:35.959Z,71
2018-12-10T19:08:49.875Z,70
2018-12-10T19:19:04.867Z,72.7
2018-12-10T19:29:18.679Z,70.1
2018-12-10T19:39:32.707Z,69.2
2018-12-10T19:49:48.313Z,66.8
2018-12-10T20:00:03.555Z,64.5
2018-12-10T20:10:19.481Z,62.1
2018-12-10T20:20:33.710Z,65.5
2018-12-10T20:30:47.618Z,64.5
2018-12-10T20:41:02.884Z,66.8
2018-12-10T20:51:17.632Z,64.5
2018-12-10T21:01:33.193Z,62.9
2018-12-10T21:11:47.710Z,62.3
2018-12-10T21:22:02.994Z,64.2
2018-12-10T21:32:17.645Z,63.6
2018-12-10T21:42:31.502Z,63.3
2018-12-10T21:52:45.826Z,60.6
2018-12-10T22:03:00.160Z,63.1
2018-12-10T22:13:14.826Z,62.4
2018-12-10T22:23:29.090Z,51.7
2018-12-10T22:33:42.799Z,48.7
2018-12-10T22:43:58.045Z,48
2018-12-10T22:54:12.235Z,48
2018-12-10T23:04:26.451Z,48.3
2018-12-10T23:14:41.131Z,49.4
2018-12-10T23:24:56.229Z,52.4
2018-12-10T23:35:10.908Z,57.5
2018-12-10T23:45:26.372Z,57.8
2018-12-10T23:55:41.242Z,56.8
